sensor_id;sensor_type;location;lat;lon;timestamp;temperature;humidity
1700;DHT22;847;48.058;7.810;2023-03-21T00:02:53;8.10;98.00
1700;DHT22;847;48.058;7.810;2023-03-21T00:05:21;8.10;98.40
1700;DHT22;847;48.058;7.810;2023-03-21T00:07:57;8.00;98.20
1700;DHT22;847;48.058;7.810;2023-03-21T00:10:29;7.90;98.50
1700;DHT22;847;48.058;7.810;2023-03-21T00:12:57;7.90;98.80
1700;DHT22;847;48.058;7.810;2023-03-21T00:15:26;8.00;98.60
1700;DHT22;847;48.058;7.810;2023-03-21T00:18:00;7.90;98.30
1700;DHT22;847;48.058;7.810;2023-03-21T00:20:37;7.80;98.50
1700;DHT22;847;48.058;7.810;2023-03-21T00:23:04;7.80;98.80
1700;DHT22;847;48.058;7.810;2023-03-21T00:25:34;7.80;99.00
1700;DHT22;847;48.058;7.810;2023-03-21T00:28:03;7.80;98.50
1700;DHT22;847;48.058;7.810;2023-03-21T00:30:31;7.70;98.90
1700;DHT22;847;48.058;7.810;2023-03-21T00:33:01;7.60;98.80
1700;DHT22;847;48.058;7.810;2023-03-21T00:35:29;7.60;99.00
1700;DHT22;847;48.058;7.810;2023-03-21T00:38:05;7.50;99.00
1700;DHT22;847;48.058;7.810;2023-03-21T00:40:44;7.50;99.00
1700;DHT22;847;48.058;7.810;2023-03-21T00:43:16;7.50;99.00
1700;DHT22;847;48.058;7.810;2023-03-21T00:45:50;7.50;99.00
1700;DHT22;847;48.058;7.810;2023-03-21T00:48:29;7.50;99.00
1700;DHT22;847;48.058;7.810;2023-03-21T00:53:32;7.40;99.00
1700;DHT22;847;48.058;7.810;2023-03-21T00:56:03;7.40;99.00
1700;DHT22;847;48.058;7.810;2023-03-21T00:58:32;7.40;99.00
1700;DHT22;847;48.058;7.810;2023-03-21T01:01:01;7.30;99.00
1700;DHT22;847;48.058;7.810;2023-03-21T01:03:32;7.30;99.00
1700;DHT22;847;48.058;7.810;2023-03-21T01:06:09;7.30;99.00
1700;DHT22;847;48.058;7.810;2023-03-21T01:11:21;7.20;99.00
1700;DHT22;847;48.058;7.810;2023-03-21T01:13:48;7.10;99.00
1700;DHT22;847;48.058;7.810;2023-03-21T01:16:17;7.10;99.00
1700;DHT22;847;48.058;7.810;2023-03-21T01:18:46;7.10;99.00
1700;DHT22;847;48.058;7.810;2023-03-21T01:21:14;7.10;99.00
1700;DHT22;847;48.058;7.810;2023-03-21T01:23:42;7.10;99.00
1700;DHT22;847;48.058;7.810;2023-03-21T01:26:13;7.00;99.00
1700;DHT22;847;48.058;7.810;2023-03-21T01:28:42;6.80;99.00
1700;DHT22;847;48.058;7.810;2023-03-21T01:31:12;6.70;99.00
1700;DHT22;847;48.058;7.810;2023-03-21T01:33:41;6.70;99.00
1700;DHT22;847;48.058;7.810;2023-03-21T01:36:15;6.70;99.00
1700;DHT22;847;48.058;7.810;2023-03-21T01:38:44;6.80;99.00
1700;DHT22;847;48.058;7.810;2023-03-21T01:41:20;6.80;99.00
1700;DHT22;847;48.058;7.810;2023-03-21T01:43:48;6.80;99.00
1700;DHT22;847;48.058;7.810;2023-03-21T01:46:37;6.60;99.00
1700;DHT22;847;48.058;7.810;2023-03-21T01:49:12;6.50;99.00
1700;DHT22;847;48.058;7.810;2023-03-21T01:51:46;6.60;99.00
1700;DHT22;847;48.058;7.810;2023-03-21T01:54:18;6.60;99.00
1700;DHT22;847;48.058;7.810;2023-03-21T01:56:51;6.60;99.00
1700;DHT22;847;48.058;7.810;2023-03-21T01:59:23;6.50;99.00
1700;DHT22;847;48.058;7.810;2023-03-21T02:01:51;6.50;99.00
1700;DHT22;847;48.058;7.810;2023-03-21T02:04:19;6.50;99.00
1700;DHT22;847;48.058;7.810;2023-03-21T02:06:58;6.40;99.00
1700;DHT22;847;48.058;7.810;2023-03-21T02:09:29;6.50;99.00
1700;DHT22;847;48.058;7.810;2023-03-21T02:11:59;6.40;99.00
1700;DHT22;847;48.058;7.810;2023-03-21T02:14:30;6.50;99.00
1700;DHT22;847;48.058;7.810;2023-03-21T02:17:05;6.50;99.00
1700;DHT22;847;48.058;7.810;2023-03-21T02:19:57;6.50;99.00
1700;DHT22;847;48.058;7.810;2023-03-21T02:22:46;6.50;99.00
1700;DHT22;847;48.058;7.810;2023-03-21T02:25:48;6.40;99.00
1700;DHT22;847;48.058;7.810;2023-03-21T02:28:22;6.40;99.00
1700;DHT22;847;48.058;7.810;2023-03-21T02:31:22;6.40;99.00
1700;DHT22;847;48.058;7.810;2023-03-21T02:37:13;6.50;99.00
1700;DHT22;847;48.058;7.810;2023-03-21T02:39:52;6.50;99.00
1700;DHT22;847;48.058;7.810;2023-03-21T02:42:27;6.50;99.00
1700;DHT22;847;48.058;7.810;2023-03-21T02:45:01;6.40;99.00
1700;DHT22;847;48.058;7.810;2023-03-21T02:47:34;6.30;99.00
1700;DHT22;847;48.058;7.810;2023-03-21T02:50:09;6.20;99.00
1700;DHT22;847;48.058;7.810;2023-03-21T02:52:42;6.20;99.00
1700;DHT22;847;48.058;7.810;2023-03-21T02:55:14;6.20;99.00
1700;DHT22;847;48.058;7.810;2023-03-21T02:57:45;6.20;99.00
1700;DHT22;847;48.058;7.810;2023-03-21T03:00:18;6.20;99.00
1700;DHT22;847;48.058;7.810;2023-03-21T03:02:46;6.20;99.00
1700;DHT22;847;48.058;7.810;2023-03-21T03:05:17;6.10;99.00
1700;DHT22;847;48.058;7.810;2023-03-21T03:07:57;6.10;99.00
1700;DHT22;847;48.058;7.810;2023-03-21T03:10:38;5.80;99.00
1700;DHT22;847;48.058;7.810;2023-03-21T03:13:17;5.60;99.00
1700;DHT22;847;48.058;7.810;2023-03-21T03:15:54;5.60;99.00
1700;DHT22;847;48.058;7.810;2023-03-21T03:18:28;5.60;99.00
1700;DHT22;847;48.058;7.810;2023-03-21T03:21:07;5.70;99.00
1700;DHT22;847;48.058;7.810;2023-03-21T03:23:42;5.80;99.00
1700;DHT22;847;48.058;7.810;2023-03-21T03:26:15;5.80;99.00
1700;DHT22;847;48.058;7.810;2023-03-21T03:28:47;5.80;99.00
1700;DHT22;847;48.058;7.810;2023-03-21T03:31:19;5.80;99.00
1700;DHT22;847;48.058;7.810;2023-03-21T03:33:52;5.80;99.00
1700;DHT22;847;48.058;7.810;2023-03-21T03:36:23;5.80;99.00
1700;DHT22;847;48.058;7.810;2023-03-21T03:38:54;5.80;99.00
1700;DHT22;847;48.058;7.810;2023-03-21T03:41:25;5.90;99.00
1700;DHT22;847;48.058;7.810;2023-03-21T03:43:57;5.80;99.00
1700;DHT22;847;48.058;7.810;2023-03-21T03:46:29;5.80;99.00
1700;DHT22;847;48.058;7.810;2023-03-21T03:49:01;5.80;99.00
1700;DHT22;847;48.058;7.810;2023-03-21T03:51:34;5.80;99.00
1700;DHT22;847;48.058;7.810;2023-03-21T03:54:10;5.90;99.00
1700;DHT22;847;48.058;7.810;2023-03-21T03:56:38;6.00;99.00
1700;DHT22;847;48.058;7.810;2023-03-21T03:59:06;5.90;99.00
1700;DHT22;847;48.058;7.810;2023-03-21T04:01:34;5.80;99.00
1700;DHT22;847;48.058;7.810;2023-03-21T04:04:02;5.80;99.00
1700;DHT22;847;48.058;7.810;2023-03-21T04:06:30;5.80;99.00
1700;DHT22;847;48.058;7.810;2023-03-21T04:08:58;5.70;99.00
1700;DHT22;847;48.058;7.810;2023-03-21T04:11:27;5.70;99.00
1700;DHT22;847;48.058;7.810;2023-03-21T04:13:55;5.70;99.00
1700;DHT22;847;48.058;7.810;2023-03-21T04:16:24;5.70;99.00
1700;DHT22;847;48.058;7.810;2023-03-21T04:18:53;5.60;99.00
1700;DHT22;847;48.058;7.810;2023-03-21T04:21:21;5.70;99.00
1700;DHT22;847;48.058;7.810;2023-03-21T04:23:49;5.70;99.00
1700;DHT22;847;48.058;7.810;2023-03-21T04:26:20;5.70;99.00
1700;DHT22;847;48.058;7.810;2023-03-21T04:29:01;5.60;99.00
1700;DHT22;847;48.058;7.810;2023-03-21T04:31:29;5.60;99.00
1700;DHT22;847;48.058;7.810;2023-03-21T04:34:00;5.60;99.00
1700;DHT22;847;48.058;7.810;2023-03-21T04:36:34;5.70;99.00
1700;DHT22;847;48.058;7.810;2023-03-21T04:39:08;5.70;99.00
1700;DHT22;847;48.058;7.810;2023-03-21T04:41:38;5.60;99.00
1700;DHT22;847;48.058;7.810;2023-03-21T04:44:07;5.60;99.00
1700;DHT22;847;48.058;7.810;2023-03-21T04:46:37;5.60;99.00
1700;DHT22;847;48.058;7.810;2023-03-21T04:49:07;5.50;99.00
1700;DHT22;847;48.058;7.810;2023-03-21T04:51:36;5.60;99.00
1700;DHT22;847;48.058;7.810;2023-03-21T04:54:04;5.60;99.00
1700;DHT22;847;48.058;7.810;2023-03-21T04:56:32;5.60;99.00
1700;DHT22;847;48.058;7.810;2023-03-21T04:59:04;5.60;99.00
1700;DHT22;847;48.058;7.810;2023-03-21T05:01:34;5.60;99.00
1700;DHT22;847;48.058;7.810;2023-03-21T05:04:03;5.60;99.00
1700;DHT22;847;48.058;7.810;2023-03-21T05:06:30;5.60;99.00
1700;DHT22;847;48.058;7.810;2023-03-21T05:08:58;5.60;99.00
1700;DHT22;847;48.058;7.810;2023-03-21T05:11:26;5.50;99.00
1700;DHT22;847;48.058;7.810;2023-03-21T05:13:58;5.50;99.00
1700;DHT22;847;48.058;7.810;2023-03-21T05:16:26;5.50;99.00
1700;DHT22;847;48.058;7.810;2023-03-21T05:18:57;5.50;99.00
1700;DHT22;847;48.058;7.810;2023-03-21T05:21:28;5.40;99.00
1700;DHT22;847;48.058;7.810;2023-03-21T05:23:58;5.50;99.00
1700;DHT22;847;48.058;7.810;2023-03-21T05:26:28;5.60;99.00
1700;DHT22;847;48.058;7.810;2023-03-21T05:28:55;5.60;99.00
1700;DHT22;847;48.058;7.810;2023-03-21T05:31:22;5.50;99.00
1700;DHT22;847;48.058;7.810;2023-03-21T05:33:49;5.50;99.00
1700;DHT22;847;48.058;7.810;2023-03-21T05:36:18;5.50;99.00
1700;DHT22;847;48.058;7.810;2023-03-21T05:38:45;5.50;99.00
1700;DHT22;847;48.058;7.810;2023-03-21T05:41:12;5.50;99.00
1700;DHT22;847;48.058;7.810;2023-03-21T05:43:39;5.50;99.00
1700;DHT22;847;48.058;7.810;2023-03-21T05:46:07;5.50;99.00
1700;DHT22;847;48.058;7.810;2023-03-21T05:48:34;5.50;99.00
1700;DHT22;847;48.058;7.810;2023-03-21T05:51:02;5.50;99.00
1700;DHT22;847;48.058;7.810;2023-03-21T05:53:30;5.60;99.00
1700;DHT22;847;48.058;7.810;2023-03-21T05:55:57;5.60;99.00
1700;DHT22;847;48.058;7.810;2023-03-21T05:58:24;5.60;99.00
1700;DHT22;847;48.058;7.810;2023-03-21T06:00:51;5.60;99.00
1700;DHT22;847;48.058;7.810;2023-03-21T06:03:18;5.50;99.00
1700;DHT22;847;48.058;7.810;2023-03-21T06:05:44;5.60;99.00
1700;DHT22;847;48.058;7.810;2023-03-21T06:08:11;5.50;99.00
1700;DHT22;847;48.058;7.810;2023-03-21T06:10:40;5.60;99.00
1700;DHT22;847;48.058;7.810;2023-03-21T06:13:06;5.60;99.00
1700;DHT22;847;48.058;7.810;2023-03-21T06:15:34;5.60;99.00
1700;DHT22;847;48.058;7.810;2023-03-21T06:18:01;5.60;99.00
1700;DHT22;847;48.058;7.810;2023-03-21T06:20:28;5.60;99.00
1700;DHT22;847;48.058;7.810;2023-03-21T06:22:56;5.70;99.00
1700;DHT22;847;48.058;7.810;2023-03-21T06:25:25;5.80;99.00
1700;DHT22;847;48.058;7.810;2023-03-21T06:27:53;5.90;99.00
1700;DHT22;847;48.058;7.810;2023-03-21T06:30:21;5.90;99.00
1700;DHT22;847;48.058;7.810;2023-03-21T06:32:48;6.00;99.00
1700;DHT22;847;48.058;7.810;2023-03-21T06:35:16;6.00;99.00
1700;DHT22;847;48.058;7.810;2023-03-21T06:37:43;6.10;99.00
1700;DHT22;847;48.058;7.810;2023-03-21T06:40:11;6.10;99.00
1700;DHT22;847;48.058;7.810;2023-03-21T06:42:38;6.20;99.00
1700;DHT22;847;48.058;7.810;2023-03-21T06:45:08;6.30;99.00
1700;DHT22;847;48.058;7.810;2023-03-21T06:47:35;6.40;99.00
1700;DHT22;847;48.058;7.810;2023-03-21T06:50:03;6.40;99.00
1700;DHT22;847;48.058;7.810;2023-03-21T06:52:31;6.50;99.00
1700;DHT22;847;48.058;7.810;2023-03-21T06:54:58;6.60;99.00
1700;DHT22;847;48.058;7.810;2023-03-21T06:57:26;6.70;99.00
1700;DHT22;847;48.058;7.810;2023-03-21T06:59:53;6.80;99.00
1700;DHT22;847;48.058;7.810;2023-03-21T07:02:22;6.90;99.00
1700;DHT22;847;48.058;7.810;2023-03-21T07:04:49;7.00;99.00
1700;DHT22;847;48.058;7.810;2023-03-21T07:07:16;7.10;99.00
1700;DHT22;847;48.058;7.810;2023-03-21T07:09:43;7.10;99.00
1700;DHT22;847;48.058;7.810;2023-03-21T07:12:10;7.20;99.00
1700;DHT22;847;48.058;7.810;2023-03-21T07:14:39;7.20;99.00
1700;DHT22;847;48.058;7.810;2023-03-21T07:17:06;7.30;99.00
1700;DHT22;847;48.058;7.810;2023-03-21T07:19:35;7.30;99.00
1700;DHT22;847;48.058;7.810;2023-03-21T07:22:02;7.40;99.00
1700;DHT22;847;48.058;7.810;2023-03-21T07:24:30;7.50;99.00
1700;DHT22;847;48.058;7.810;2023-03-21T07:26:57;7.50;99.00
1700;DHT22;847;48.058;7.810;2023-03-21T07:29:25;7.60;99.00
1700;DHT22;847;48.058;7.810;2023-03-21T07:31:52;7.60;99.00
1700;DHT22;847;48.058;7.810;2023-03-21T07:34:19;7.70;99.00
1700;DHT22;847;48.058;7.810;2023-03-21T07:36:48;7.70;99.00
1700;DHT22;847;48.058;7.810;2023-03-21T07:39:18;7.80;99.00
1700;DHT22;847;48.058;7.810;2023-03-21T07:41:45;7.80;99.00
1700;DHT22;847;48.058;7.810;2023-03-21T07:44:13;7.90;99.00
1700;DHT22;847;48.058;7.810;2023-03-21T07:46:40;7.90;99.00
1700;DHT22;847;48.058;7.810;2023-03-21T07:49:07;8.00;99.00
1700;DHT22;847;48.058;7.810;2023-03-21T07:51:35;8.00;99.00
1700;DHT22;847;48.058;7.810;2023-03-21T07:54:04;8.10;99.00
1700;DHT22;847;48.058;7.810;2023-03-21T07:56:32;8.10;99.00
1700;DHT22;847;48.058;7.810;2023-03-21T07:58:59;8.20;99.00
1700;DHT22;847;48.058;7.810;2023-03-21T08:09:15;8.30;99.00
1700;DHT22;847;48.058;7.810;2023-03-21T08:14:18;8.40;99.00
1700;DHT22;847;48.058;7.810;2023-03-21T08:19:21;8.50;99.00
1700;DHT22;847;48.058;7.810;2023-03-21T08:22:03;8.50;99.00
1700;DHT22;847;48.058;7.810;2023-03-21T08:24:33;8.50;99.00
1700;DHT22;847;48.058;7.810;2023-03-21T08:27:03;8.50;99.00
1700;DHT22;847;48.058;7.810;2023-03-21T08:29:33;8.60;99.00
1700;DHT22;847;48.058;7.810;2023-03-21T08:47:47;8.90;99.00
1700;DHT22;847;48.058;7.810;2023-03-21T08:50:16;9.00;99.00
1700;DHT22;847;48.058;7.810;2023-03-21T08:52:43;9.10;99.00
1700;DHT22;847;48.058;7.810;2023-03-21T11:20:42;12.70;86.90
1700;DHT22;847;48.058;7.810;2023-03-21T11:28:38;13.00;85.90
1700;DHT22;847;48.058;7.810;2023-03-21T11:31:07;13.10;85.60
1700;DHT22;847;48.058;7.810;2023-03-21T11:33:37;13.10;85.90
1700;DHT22;847;48.058;7.810;2023-03-21T11:36:31;13.20;84.10
1700;DHT22;847;48.058;7.810;2023-03-21T11:45:12;13.60;85.10
1700;DHT22;847;48.058;7.810;2023-03-21T11:47:39;13.80;83.20
1700;DHT22;847;48.058;7.810;2023-03-21T11:53:05;13.80;82.70
1700;DHT22;847;48.058;7.810;2023-03-21T11:55:47;13.70;83.00
1700;DHT22;847;48.058;7.810;2023-03-21T12:01:14;13.80;83.40
1700;DHT22;847;48.058;7.810;2023-03-21T12:04:00;14.00;82.20
1700;DHT22;847;48.058;7.810;2023-03-21T12:06:33;14.10;81.20
1700;DHT22;847;48.058;7.810;2023-03-21T12:09:15;14.10;81.20
1700;DHT22;847;48.058;7.810;2023-03-21T12:11:55;14.10;81.10
1700;DHT22;847;48.058;7.810;2023-03-21T12:14:29;14.20;83.00
1700;DHT22;847;48.058;7.810;2023-03-21T12:17:05;14.20;83.00
1700;DHT22;847;48.058;7.810;2023-03-21T12:19:49;14.20;82.80
1700;DHT22;847;48.058;7.810;2023-03-21T12:22:27;14.30;83.20
1700;DHT22;847;48.058;7.810;2023-03-21T12:25:00;14.40;82.60
1700;DHT22;847;48.058;7.810;2023-03-21T12:27:38;14.30;83.20
1700;DHT22;847;48.058;7.810;2023-03-21T12:30:21;14.40;81.00
1700;DHT22;847;48.058;7.810;2023-03-21T12:33:08;14.40;80.60
1700;DHT22;847;48.058;7.810;2023-03-21T12:35:53;14.40;82.50
1700;DHT22;847;48.058;7.810;2023-03-21T12:38:29;14.50;82.30
1700;DHT22;847;48.058;7.810;2023-03-21T12:41:26;14.50;83.00
1700;DHT22;847;48.058;7.810;2023-03-21T12:43:59;14.50;84.40
1700;DHT22;847;48.058;7.810;2023-03-21T12:46:33;14.50;83.60
1700;DHT22;847;48.058;7.810;2023-03-21T12:49:02;14.50;83.70
1700;DHT22;847;48.058;7.810;2023-03-21T12:51:36;14.50;84.20
1700;DHT22;847;48.058;7.810;2023-03-21T12:54:11;14.60;83.80
1700;DHT22;847;48.058;7.810;2023-03-21T12:56:45;14.60;85.20
1700;DHT22;847;48.058;7.810;2023-03-21T12:59:22;14.70;83.50
1700;DHT22;847;48.058;7.810;2023-03-21T13:01:55;14.80;83.10
1700;DHT22;847;48.058;7.810;2023-03-21T13:04:46;14.80;82.90
1700;DHT22;847;48.058;7.810;2023-03-21T13:07:17;14.90;82.80
1700;DHT22;847;48.058;7.810;2023-03-21T13:09:45;14.90;78.10
1700;DHT22;847;48.058;7.810;2023-03-21T13:12:21;15.00;78.10
1700;DHT22;847;48.058;7.810;2023-03-21T13:14:59;15.00;78.30
1700;DHT22;847;48.058;7.810;2023-03-21T13:17:33;15.00;78.60
1700;DHT22;847;48.058;7.810;2023-03-21T13:20:08;14.90;79.20
1700;DHT22;847;48.058;7.810;2023-03-21T13:22:38;15.00;79.20
1700;DHT22;847;48.058;7.810;2023-03-21T13:25:14;15.10;78.20
1700;DHT22;847;48.058;7.810;2023-03-21T13:27:50;15.00;80.10
1700;DHT22;847;48.058;7.810;2023-03-21T13:30:19;15.10;78.70
1700;DHT22;847;48.058;7.810;2023-03-21T13:32:48;15.10;79.20
1700;DHT22;847;48.058;7.810;2023-03-21T13:35:18;15.10;77.70
1700;DHT22;847;48.058;7.810;2023-03-21T13:37:49;15.20;78.10
1700;DHT22;847;48.058;7.810;2023-03-21T13:40:22;15.20;79.30
1700;DHT22;847;48.058;7.810;2023-03-21T13:42:54;15.30;78.90
1700;DHT22;847;48.058;7.810;2023-03-21T13:45:27;15.30;77.40
1700;DHT22;847;48.058;7.810;2023-03-21T13:47:57;15.30;78.20
1700;DHT22;847;48.058;7.810;2023-03-21T13:50:28;15.20;77.80
1700;DHT22;847;48.058;7.810;2023-03-21T13:53:18;15.30;78.30
1700;DHT22;847;48.058;7.810;2023-03-21T13:55:57;15.40;77.70
1700;DHT22;847;48.058;7.810;2023-03-21T13:58:33;15.50;79.50
1700;DHT22;847;48.058;7.810;2023-03-21T14:01:12;15.60;78.90
1700;DHT22;847;48.058;7.810;2023-03-21T14:03:43;15.50;78.10
1700;DHT22;847;48.058;7.810;2023-03-21T14:06:11;15.50;78.10
1700;DHT22;847;48.058;7.810;2023-03-21T14:08:40;15.50;77.30
1700;DHT22;847;48.058;7.810;2023-03-21T14:11:11;15.60;79.00
1700;DHT22;847;48.058;7.810;2023-03-21T14:13:42;15.60;76.70
1700;DHT22;847;48.058;7.810;2023-03-21T14:16:12;15.60;76.90
1700;DHT22;847;48.058;7.810;2023-03-21T14:18:42;15.60;76.70
1700;DHT22;847;48.058;7.810;2023-03-21T14:21:16;15.70;76.10
1700;DHT22;847;48.058;7.810;2023-03-21T14:23:43;15.60;77.90
1700;DHT22;847;48.058;7.810;2023-03-21T14:26:10;15.60;76.90
1700;DHT22;847;48.058;7.810;2023-03-21T14:28:44;15.60;77.90
1700;DHT22;847;48.058;7.810;2023-03-21T14:31:14;15.60;77.30
1700;DHT22;847;48.058;7.810;2023-03-21T14:33:45;15.60;76.60
1700;DHT22;847;48.058;7.810;2023-03-21T14:36:16;15.60;77.30
1700;DHT22;847;48.058;7.810;2023-03-21T14:38:54;15.60;76.70
1700;DHT22;847;48.058;7.810;2023-03-21T14:41:22;15.70;76.50
1700;DHT22;847;48.058;7.810;2023-03-21T14:44:22;15.70;76.60
1700;DHT22;847;48.058;7.810;2023-03-21T14:47:03;15.60;76.70
1700;DHT22;847;48.058;7.810;2023-03-21T14:49:31;15.70;76.80
1700;DHT22;847;48.058;7.810;2023-03-21T14:52:01;15.70;77.40
1700;DHT22;847;48.058;7.810;2023-03-21T14:54:33;15.80;76.40
1700;DHT22;847;48.058;7.810;2023-03-21T14:57:02;15.80;78.00
1700;DHT22;847;48.058;7.810;2023-03-21T14:59:34;15.80;77.80
1700;DHT22;847;48.058;7.810;2023-03-21T15:02:04;15.80;78.30
1700;DHT22;847;48.058;7.810;2023-03-21T15:04:32;15.80;77.30
1700;DHT22;847;48.058;7.810;2023-03-21T15:07:01;15.80;77.50
1700;DHT22;847;48.058;7.810;2023-03-21T15:09:31;15.80;78.10
1700;DHT22;847;48.058;7.810;2023-03-21T15:11:59;15.70;77.90
1700;DHT22;847;48.058;7.810;2023-03-21T15:14:29;15.70;78.50
1700;DHT22;847;48.058;7.810;2023-03-21T15:17:00;15.60;78.10
1700;DHT22;847;48.058;7.810;2023-03-21T15:19:31;15.60;78.60
1700;DHT22;847;48.058;7.810;2023-03-21T15:22:04;15.60;78.00
1700;DHT22;847;48.058;7.810;2023-03-21T15:24:35;15.60;77.90
1700;DHT22;847;48.058;7.810;2023-03-21T15:27:04;15.60;77.80
1700;DHT22;847;48.058;7.810;2023-03-21T15:29:32;15.60;78.20
1700;DHT22;847;48.058;7.810;2023-03-21T15:32:06;15.60;78.30
1700;DHT22;847;48.058;7.810;2023-03-21T15:34:33;15.60;78.60
1700;DHT22;847;48.058;7.810;2023-03-21T15:37:04;15.60;77.70
1700;DHT22;847;48.058;7.810;2023-03-21T15:39:32;15.60;77.50
1700;DHT22;847;48.058;7.810;2023-03-21T15:42:03;15.60;77.40
1700;DHT22;847;48.058;7.810;2023-03-21T15:44:30;15.60;77.40
1700;DHT22;847;48.058;7.810;2023-03-21T15:46:57;15.60;77.30
1700;DHT22;847;48.058;7.810;2023-03-21T15:49:28;15.60;77.90
1700;DHT22;847;48.058;7.810;2023-03-21T15:52:03;15.60;76.90
1700;DHT22;847;48.058;7.810;2023-03-21T15:54:32;15.60;77.40
1700;DHT22;847;48.058;7.810;2023-03-21T15:57:03;15.60;77.70
1700;DHT22;847;48.058;7.810;2023-03-21T15:59:37;15.60;79.00
1700;DHT22;847;48.058;7.810;2023-03-21T16:02:14;15.50;78.80
1700;DHT22;847;48.058;7.810;2023-03-21T16:04:56;15.50;78.10
1700;DHT22;847;48.058;7.810;2023-03-21T16:07:24;15.50;78.60
1700;DHT22;847;48.058;7.810;2023-03-21T16:09:57;15.50;78.30
1700;DHT22;847;48.058;7.810;2023-03-21T16:12:25;15.50;78.50
1700;DHT22;847;48.058;7.810;2023-03-21T16:14:52;15.50;78.30
1700;DHT22;847;48.058;7.810;2023-03-21T16:17:26;15.50;78.00
1700;DHT22;847;48.058;7.810;2023-03-21T16:19:53;15.50;78.00
1700;DHT22;847;48.058;7.810;2023-03-21T16:22:21;15.50;77.90
1700;DHT22;847;48.058;7.810;2023-03-21T16:24:48;15.50;78.00
1700;DHT22;847;48.058;7.810;2023-03-21T16:27:16;15.50;77.90
1700;DHT22;847;48.058;7.810;2023-03-21T16:29:44;15.50;78.50
1700;DHT22;847;48.058;7.810;2023-03-21T16:32:13;15.50;78.50
1700;DHT22;847;48.058;7.810;2023-03-21T16:34:41;15.50;78.30
1700;DHT22;847;48.058;7.810;2023-03-21T16:37:09;15.50;78.20
1700;DHT22;847;48.058;7.810;2023-03-21T16:39:38;15.50;78.00
1700;DHT22;847;48.058;7.810;2023-03-21T16:42:04;15.50;78.70
1700;DHT22;847;48.058;7.810;2023-03-21T16:44:31;15.40;79.10
1700;DHT22;847;48.058;7.810;2023-03-21T16:47:00;15.40;78.70
1700;DHT22;847;48.058;7.810;2023-03-21T16:49:27;15.40;78.70
1700;DHT22;847;48.058;7.810;2023-03-21T16:51:55;15.40;79.80
1700;DHT22;847;48.058;7.810;2023-03-21T16:54:25;15.30;79.60
1700;DHT22;847;48.058;7.810;2023-03-21T16:56:55;15.30;79.30
1700;DHT22;847;48.058;7.810;2023-03-21T16:59:23;15.20;79.70
1700;DHT22;847;48.058;7.810;2023-03-21T17:01:50;15.20;80.00
1700;DHT22;847;48.058;7.810;2023-03-21T17:04:18;15.20;79.90
1700;DHT22;847;48.058;7.810;2023-03-21T17:06:46;15.20;79.70
1700;DHT22;847;48.058;7.810;2023-03-21T17:09:14;15.10;80.30
1700;DHT22;847;48.058;7.810;2023-03-21T17:11:41;15.00;80.30
1700;DHT22;847;48.058;7.810;2023-03-21T17:14:11;15.00;80.10
1700;DHT22;847;48.058;7.810;2023-03-21T17:16:38;15.00;79.70
1700;DHT22;847;48.058;7.810;2023-03-21T17:19:11;15.00;79.30
1700;DHT22;847;48.058;7.810;2023-03-21T17:21:38;15.10;78.80
1700;DHT22;847;48.058;7.810;2023-03-21T17:24:05;15.10;79.20
1700;DHT22;847;48.058;7.810;2023-03-21T17:26:32;15.00;79.20
1700;DHT22;847;48.058;7.810;2023-03-21T17:28:59;15.00;79.40
1700;DHT22;847;48.058;7.810;2023-03-21T17:31:31;14.90;80.20
1700;DHT22;847;48.058;7.810;2023-03-21T17:33:58;14.90;80.10
1700;DHT22;847;48.058;7.810;2023-03-21T17:36:29;14.80;80.50
1700;DHT22;847;48.058;7.810;2023-03-21T17:38:56;14.80;80.60
1700;DHT22;847;48.058;7.810;2023-03-21T17:41:23;14.80;79.90
1700;DHT22;847;48.058;7.810;2023-03-21T17:43:50;14.80;79.90
1700;DHT22;847;48.058;7.810;2023-03-21T17:46:19;14.80;80.20
1700;DHT22;847;48.058;7.810;2023-03-21T17:48:48;14.80;80.10
1700;DHT22;847;48.058;7.810;2023-03-21T17:51:15;14.80;80.30
1700;DHT22;847;48.058;7.810;2023-03-21T17:53:42;14.80;80.20
1700;DHT22;847;48.058;7.810;2023-03-21T17:56:13;14.80;80.30
1700;DHT22;847;48.058;7.810;2023-03-21T17:58:40;14.80;80.50
1700;DHT22;847;48.058;7.810;2023-03-21T18:01:07;14.80;81.00
1700;DHT22;847;48.058;7.810;2023-03-21T18:03:34;14.70;81.60
1700;DHT22;847;48.058;7.810;2023-03-21T18:06:02;14.70;81.90
1700;DHT22;847;48.058;7.810;2023-03-21T18:08:29;14.60;82.50
1700;DHT22;847;48.058;7.810;2023-03-21T18:10:57;14.60;82.30
1700;DHT22;847;48.058;7.810;2023-03-21T18:13:24;14.60;82.10
1700;DHT22;847;48.058;7.810;2023-03-21T18:15:50;14.60;81.90
1700;DHT22;847;48.058;7.810;2023-03-21T18:18:17;14.60;82.10
1700;DHT22;847;48.058;7.810;2023-03-21T18:20:44;14.50;82.60
1700;DHT22;847;48.058;7.810;2023-03-21T18:23:12;14.50;82.20
1700;DHT22;847;48.058;7.810;2023-03-21T18:25:39;14.50;82.00
1700;DHT22;847;48.058;7.810;2023-03-21T18:28:06;14.40;82.40
1700;DHT22;847;48.058;7.810;2023-03-21T18:30:34;14.40;82.10
1700;DHT22;847;48.058;7.810;2023-03-21T18:33:01;14.40;82.00
1700;DHT22;847;48.058;7.810;2023-03-21T18:35:29;14.40;81.70
1700;DHT22;847;48.058;7.810;2023-03-21T18:37:55;14.40;82.00
1700;DHT22;847;48.058;7.810;2023-03-21T18:40:25;14.40;81.80
1700;DHT22;847;48.058;7.810;2023-03-21T18:42:52;14.40;81.40
1700;DHT22;847;48.058;7.810;2023-03-21T18:45:19;14.40;81.60
1700;DHT22;847;48.058;7.810;2023-03-21T18:47:47;14.30;81.70
1700;DHT22;847;48.058;7.810;2023-03-21T18:50:14;14.20;82.20
1700;DHT22;847;48.058;7.810;2023-03-21T18:52:41;14.20;81.60
1700;DHT22;847;48.058;7.810;2023-03-21T18:55:08;14.20;82.20
1700;DHT22;847;48.058;7.810;2023-03-21T18:57:37;14.20;82.20
1700;DHT22;847;48.058;7.810;2023-03-21T19:00:06;14.20;82.40
1700;DHT22;847;48.058;7.810;2023-03-21T19:02:37;14.20;82.00
1700;DHT22;847;48.058;7.810;2023-03-21T19:05:05;14.20;82.00
1700;DHT22;847;48.058;7.810;2023-03-21T19:07:32;14.20;81.40
1700;DHT22;847;48.058;7.810;2023-03-21T19:09:58;14.20;81.70
1700;DHT22;847;48.058;7.810;2023-03-21T19:12:26;14.20;81.70
1700;DHT22;847;48.058;7.810;2023-03-21T19:14:54;14.20;81.50
1700;DHT22;847;48.058;7.810;2023-03-21T19:17:21;14.20;81.30
1700;DHT22;847;48.058;7.810;2023-03-21T19:19:48;14.30;80.20
1700;DHT22;847;48.058;7.810;2023-03-21T19:22:15;14.30;80.30
1700;DHT22;847;48.058;7.810;2023-03-21T19:24:42;14.30;80.50
1700;DHT22;847;48.058;7.810;2023-03-21T19:27:09;14.30;80.70
1700;DHT22;847;48.058;7.810;2023-03-21T19:29:36;14.30;80.80
1700;DHT22;847;48.058;7.810;2023-03-21T19:32:05;14.30;80.40
1700;DHT22;847;48.058;7.810;2023-03-21T19:34:32;14.30;80.80
1700;DHT22;847;48.058;7.810;2023-03-21T19:36:59;14.30;80.40
1700;DHT22;847;48.058;7.810;2023-03-21T19:39:26;14.40;79.50
1700;DHT22;847;48.058;7.810;2023-03-21T19:41:52;14.30;79.80
1700;DHT22;847;48.058;7.810;2023-03-21T19:44:20;14.30;80.20
1700;DHT22;847;48.058;7.810;2023-03-21T19:46:48;14.30;80.80
1700;DHT22;847;48.058;7.810;2023-03-21T19:49:17;14.30;79.60
1700;DHT22;847;48.058;7.810;2023-03-21T19:51:47;14.30;79.50
1700;DHT22;847;48.058;7.810;2023-03-21T19:54:14;14.30;80.30
1700;DHT22;847;48.058;7.810;2023-03-21T19:56:42;14.20;80.50
1700;DHT22;847;48.058;7.810;2023-03-21T19:59:09;14.10;80.80
1700;DHT22;847;48.058;7.810;2023-03-21T20:01:37;14.20;81.60
1700;DHT22;847;48.058;7.810;2023-03-21T20:04:03;14.10;81.60
1700;DHT22;847;48.058;7.810;2023-03-21T20:06:33;14.10;81.50
1700;DHT22;847;48.058;7.810;2023-03-21T20:09:00;14.10;81.40
1700;DHT22;847;48.058;7.810;2023-03-21T20:11:26;14.10;82.30